Time;durP1;ratioP1;P1;durP2;ratioP2;P2;SDS_P1;SDS_P2;PMS_P1;PMS_P2;Temp;Humidity;BMP_temperature;BMP_pressure;BME280_temperature;BME280_humidity;BME280_pressure;Samples;Min_cycle;Max_cycle;Signal;HPM_P1;HPM_P2
2023/02/01 00:01:29;;;;;;;19.35;7.25;;;;;;;2.63;73.76;100807.03;1874075;75;21079;-53
2023/02/01 00:03:58;;;;;;;17.52;5.15;;;;;;;2.47;74.32;100814.03;1903283;75;21520;-53
2023/02/01 00:06:26;;;;;;;18.10;5.28;;;;;;;2.53;74.16;100810.13;1883720;74;21123;-45
2023/02/01 00:08:56;;;;;;;18.20;6.28;;;;;;;2.58;74.02;100803.14;1871722;77;21053;-48
2023/02/01 00:11:25;;;;;;;18.27;5.75;;;;;;;2.64;73.73;100808.34;1871883;76;21031;-46
2023/02/01 00:13:54;;;;;;;11.03;4.42;;;;;;;2.72;73.56;100811.33;1871912;76;21448;-48
2023/02/01 00:16:25;;;;;;;15.03;5.37;;;;;;;2.68;73.64;100805.28;1872098;76;21117;-47
2023/02/01 00:19:00;;;;;;;20.77;7.10;;;;;;;2.64;73.72;100807.03;1872228;75;21480;-48
2023/02/01 00:21:31;;;;;;;14.87;4.90;;;;;;;2.69;73.68;100804.39;1882046;75;21093;-49
2023/02/01 00:24:00;;;;;;;17.57;6.25;;;;;;;2.72;73.47;100800.48;1904447;75;21076;-49
2023/02/01 00:26:43;;;;;;;28.12;7.45;;;;;;;2.72;73.37;100807.44;1889334;74;21014;-54
2023/02/01 00:29:20;;;;;;;20.40;7.47;;;;;;;2.71;73.40;100810.45;1872591;76;21176;-53
2023/02/01 00:31:52;;;;;;;18.92;6.75;;;;;;;2.69;73.52;100811.78;1890658;76;21567;-52
2023/02/01 00:34:21;;;;;;;19.02;7.08;;;;;;;2.74;73.32;100811.73;1890680;76;21512;-51
2023/02/01 00:36:50;;;;;;;17.25;6.30;;;;;;;2.79;73.34;100803.92;1890690;76;21727;-52
2023/02/01 00:39:18;;;;;;;14.10;5.30;;;;;;;2.82;73.33;100806.48;1890679;76;21035;-51
2023/02/01 00:41:47;;;;;;;29.12;7.90;;;;;;;2.79;73.34;100805.23;1897098;74;21090;-49
2023/02/01 00:44:16;;;;;;;16.73;6.22;;;;;;;2.80;73.29;100804.34;1890585;76;21047;-53
2023/02/01 00:46:44;;;;;;;15.43;6.50;;;;;;;2.67;73.49;100804.43;1890818;74;21097;-54
2023/02/01 00:49:13;;;;;;;12.90;4.15;;;;;;;2.63;73.61;100797.49;1903760;74;21051;-53
2023/02/01 00:51:41;;;;;;;26.97;8.20;;;;;;;2.65;73.67;100797.05;1923818;74;21094;-54
2023/02/01 00:54:10;;;;;;;23.95;7.95;;;;;;;2.68;73.51;100793.14;1923694;74;21140;-44
2023/02/01 00:56:38;;;;;;;21.07;8.50;;;;;;;2.75;73.36;100790.49;1923830;74;21107;-57
2023/02/01 00:59:08;;;;;;;24.15;7.37;;;;;;;2.80;73.21;100788.73;1903253;74;21040;-56
2023/02/01 01:01:37;;;;;;;22.50;7.83;;;;;;;2.81;73.15;100780.08;1890619;75;21544;-57
2023/02/01 01:04:06;;;;;;;25.97;8.70;;;;;;;2.76;73.35;100783.13;1890596;75;21541;-49
2023/02/01 01:06:35;;;;;;;28.62;9.75;;;;;;;2.75;73.50;100780.09;1890686;76;21114;-51
2023/02/01 01:09:07;;;;;;;32.25;9.58;;;;;;;2.79;73.67;100782.68;1890601;76;21580;-51
2023/02/01 01:11:38;;;;;;;29.10;9.70;;;;;;;2.82;73.63;100780.06;1890613;75;21035;-48
2023/02/01 01:14:08;;;;;;;33.73;10.88;;;;;;;2.81;73.60;100780.08;1890673;75;21035;-50
2023/02/01 01:16:37;;;;;;;32.45;8.95;;;;;;;2.78;73.81;100780.94;1890652;76;21643;-50
2023/02/01 01:19:06;;;;;;;28.75;9.38;;;;;;;2.77;73.65;100782.27;1890613;76;21035;-50
2023/02/01 01:21:35;;;;;;;31.10;9.80;;;;;;;2.81;73.60;100783.53;1891110;74;21558;-47
2023/02/01 01:24:05;;;;;;;33.55;9.78;;;;;;;2.84;73.56;100778.31;1890606;76;21096;-49
2023/02/01 01:26:34;;;;;;;37.90;10.93;;;;;;;2.91;73.57;100783.02;1890610;75;21103;-54
2023/02/01 01:29:02;;;;;;;33.88;9.10;;;;;;;2.92;73.67;100783.46;1890593;76;21013;-53
2023/02/01 01:31:31;;;;;;;5.10;1.98;;;;;;;2.86;73.97;100773.11;1877925;75;21081;-57
2023/02/01 01:34:01;;;;;;;17.65;7.70;;;;;;;2.84;73.82;100767.91;1900945;75;21509;-49
2023/02/01 01:36:30;;;;;;;21.37;7.22;;;;;;;2.76;73.87;100775.33;1874061;75;21210;-49
2023/02/01 01:38:59;;;;;;;32.90;8.00;;;;;;;2.63;74.11;100777.14;1871897;77;21146;-53
2023/02/01 01:41:30;;;;;;;32.42;8.08;;;;;;;2.55;74.35;100786.28;1871889;76;21122;-51
2023/02/01 01:44:03;;;;;;;22.05;7.55;;;;;;;2.50;74.53;100790.64;1903821;74;21139;-50
2023/02/01 01:46:40;;;;;;;27.10;7.95;;;;;;;2.48;74.53;100786.74;1904226;75;21036;-52
2023/02/01 01:49:17;;;;;;;25.95;6.00;;;;;;;2.52;74.40;100790.19;1904424;75;21530;-52
2023/02/01 01:51:48;;;;;;;24.12;8.13;;;;;;;2.53;74.32;100789.34;1904355;75;21536;-52
2023/02/01 01:54:23;;;;;;;29.50;8.95;;;;;;;2.52;74.25;100791.49;1904106;74;21037;-50
2023/02/01 01:56:55;;;;;;;34.63;9.45;;;;;;;2.49;74.14;100793.68;1905006;74;21032;-54
2023/02/01 01:59:25;;;;;;;28.50;8.15;;;;;;;2.46;74.13;100798.03;1905294;74;21056;-53
2023/02/01 02:01:56;;;;;;;23.83;7.40;;;;;;;2.40;74.42;100798.92;1905355;75;21052;-54
2023/02/01 02:04:25;;;;;;;25.25;9.05;;;;;;;2.42;74.29;100798.48;1905187;75;21064;-54
2023/02/01 02:07:00;;;;;;;15.32;8.28;;;;;;;2.38;74.34;100796.77;1905183;75;21040;-56
2023/02/01 02:09:29;;;;;;;24.72;8.95;;;;;;;2.31;74.47;100802.42;1905062;75;21024;-57
2023/02/01 02:11:57;;;;;;;17.17;6.28;;;;;;;2.28;74.47;100798.52;1905331;75;21044;-52
2023/02/01 02:14:27;;;;;;;24.72;7.35;;;;;;;2.30;74.52;100801.12;1905158;75;21503;-53
2023/02/01 02:17:23;;;;;;;19.60;5.53;;;;;;;2.30;74.47;100797.22;1905292;74;21122;-51
2023/02/01 02:20:06;;;;;;;20.65;8.40;;;;;;;2.28;74.50;100798.97;1843338;78;21063;-51
2023/02/01 02:22:40;;;;;;;17.40;7.63;;;;;;;2.23;74.58;100805.49;1843937;78;21513;-50
2023/02/01 02:25:27;;;;;;;24.07;7.75;;;;;;;2.21;74.68;100807.20;1874012;74;21004;-54
2023/02/01 02:28:01;;;;;;;14.33;6.55;;;;;;;2.21;74.62;100817.59;1905198;75;21506;-54
2023/02/01 02:30:54;;;;;;;19.05;5.00;;;;;;;2.20;74.73;100810.69;1905099;74;21177;-50
2023/02/01 02:33:46;;;;;;;54.98;7.90;;;;;;;2.19;74.69;100808.09;1905120;74;21126;-54
2023/02/01 02:36:24;;;;;;;13.43;5.67;;;;;;;2.15;74.74;100811.13;1905189;75;21065;-50
2023/02/01 02:39:08;;;;;;;14.73;5.85;;;;;;;2.13;74.70;100813.73;1905154;75;21044;-54
2023/02/01 02:47:55;;;;;;;9.05;3.90;;;;;;;2.09;74.79;100802.08;1905128;75;21012;-54
2023/02/01 03:04:58;;;;;;;14.30;5.67;;;;;;;2.16;74.70;100815.48;1905178;75;21025;-58
2023/02/01 03:07:46;;;;;;;14.85;5.45;;;;;;;2.13;75.08;100817.63;1905180;75;21021;-56
2023/02/01 03:10:27;;;;;;;18.60;6.58;;;;;;;2.19;74.96;100817.19;1905297;75;21475;-54
2023/02/01 03:12:58;;;;;;;16.90;5.45;;;;;;;2.26;74.79;100810.66;1905344;75;21056;-54
2023/02/01 03:15:30;;;;;;;13.22;3.85;;;;;;;2.29;74.51;100810.66;1905021;75;21068;-54
2023/02/01 03:18:01;;;;;;;12.20;4.05;;;;;;;2.26;74.61;100818.45;1904364;74;21114;-56
2023/02/01 03:20:32;;;;;;;12.73;4.58;;;;;;;2.21;74.73;100814.14;1905254;75;21098;-55
2023/02/01 03:23:03;;;;;;;7.05;3.72;;;;;;;2.24;74.76;100812.41;1905159;75;21071;-54
2023/02/01 03:25:35;;;;;;;12.65;4.85;;;;;;;2.25;74.71;100816.74;1905214;75;21072;-54
2023/02/01 03:28:07;;;;;;;11.15;3.80;;;;;;;2.25;74.71;100824.95;1905165;75;21032;-54
2023/02/01 03:30:41;;;;;;;11.05;3.58;;;;;;;2.15;74.95;100824.13;1904952;74;21036;-56
2023/02/01 03:33:22;;;;;;;11.83;4.55;;;;;;;2.06;75.24;100820.25;1905116;75;21146;-55
2023/02/01 03:36:13;;;;;;;12.28;2.95;;;;;;;2.06;75.20;100812.46;1905186;75;21491;-51
2023/02/01 03:38:58;;;;;;;14.18;5.08;;;;;;;2.03;75.42;100818.55;1905170;75;21507;-52
2023/02/01 03:41:29;;;;;;;11.90;4.92;;;;;;;2.06;75.24;100815.06;1905419;74;21114;-51
2023/02/01 03:44:04;;;;;;;13.78;4.30;;;;;;;2.05;75.22;100812.91;1905276;74;21126;-49
2023/02/01 03:46:36;;;;;;;12.13;5.05;;;;;;;2.10;75.19;100811.58;1904806;74;21036;-49
2023/02/01 03:49:07;;;;;;;11.60;3.75;;;;;;;2.15;74.99;100815.48;1905010;74;21130;-52
2023/02/01 03:51:41;;;;;;;8.60;3.80;;;;;;;2.16;74.91;100818.07;1905173;75;21056;-50
2023/02/01 03:54:13;;;;;;;13.08;4.85;;;;;;;2.10;75.11;100819.38;1905391;75;21459;-52
2023/02/01 03:56:45;;;;;;;8.88;3.08;;;;;;;1.98;75.38;100814.23;1905271;75;21056;-57
2023/02/01 03:59:15;;;;;;;13.65;4.92;;;;;;;1.96;75.64;100816.83;1905208;75;21142;-56
2023/02/01 04:01:43;;;;;;;20.25;5.08;;;;;;;1.99;75.46;100805.11;1905176;75;21486;-55
2023/02/01 04:04:19;;;;;;;10.08;4.10;;;;;;;2.08;75.35;100814.62;1905150;75;21087;-49
2023/02/01 04:06:42;;;;;;;13.28;3.12;;;;;;;2.09;75.44;100812.47;1904758;74;21064;-52
2023/02/01 04:09:11;;;;;;;2.45;1.42;;;;;;;2.06;75.46;100816.36;1905194;75;21531;-50
2023/02/01 04:11:40;;;;;;;8.93;4.17;;;;;;;2.04;75.43;100811.61;1905355;74;21099;-53
2023/02/01 04:14:09;;;;;;;9.95;4.33;;;;;;;1.98;75.65;100812.93;1905230;75;21020;-54
2023/02/01 04:16:37;;;;;;;19.73;4.85;;;;;;;1.99;75.66;100817.23;1905119;75;21169;-51
2023/02/01 04:19:06;;;;;;;9.05;3.62;;;;;;;2.02;75.58;100805.11;1905307;75;21056;-51
2023/02/01 04:21:35;;;;;;;4.62;2.75;;;;;;;2.03;75.76;100807.27;1905376;75;21001;-47
2023/02/01 04:24:04;;;;;;;12.70;3.90;;;;;;;2.01;75.69;100815.09;1905245;75;21129;-47
2023/02/01 04:26:33;;;;;;;12.10;4.60;;;;;;;2.03;75.53;100818.95;1905308;75;21013;-48
2023/02/01 04:29:01;;;;;;;13.70;5.67;;;;;;;2.00;75.60;100814.64;1905109;75;21107;-49
2023/02/01 04:31:30;;;;;;;11.73;4.72;;;;;;;2.04;75.51;100812.46;1905244;75;21049;-54
2023/02/01 04:33:59;;;;;;;19.85;5.83;;;;;;;2.10;75.31;100811.58;1922508;74;21027;-49
2023/02/01 04:36:27;;;;;;;13.85;6.33;;;;;;;2.13;75.12;100815.48;1924622;74;21028;-53
2023/02/01 04:38:56;;;;;;;16.60;5.60;;;;;;;2.18;75.02;100816.33;1924652;74;21040;-51
2023/02/01 04:41:25;;;;;;;15.28;5.72;;;;;;;2.21;74.99;100812.41;1924542;74;21525;-48
2023/02/01 04:43:53;;;;;;;12.78;4.45;;;;;;;2.22;74.99;100818.48;1924631;74;21078;-53
2023/02/01 04:46:22;;;;;;;13.80;5.05;;;;;;;2.17;75.11;100831.47;1924602;74;21075;-57
2023/02/01 04:48:50;;;;;;;18.55;6.58;;;;;;;2.12;75.27;100830.61;1924642;74;21028;-58
2023/02/01 04:51:19;;;;;;;19.70;6.95;;;;;;;2.05;75.67;100828.94;1924661;74;21008;-59
2023/02/01 04:53:48;;;;;;;19.10;6.47;;;;;;;1.98;75.88;100829.81;1924638;74;21056;-58
2023/02/01 04:56:16;;;;;;;10.05;3.83;;;;;;;1.93;76.04;100834.55;1924541;74;21145;-59
2023/02/01 04:58:45;;;;;;;16.05;5.55;;;;;;;1.93;76.03;100830.66;1924604;74;21008;-59
2023/02/01 05:01:14;;;;;;;15.05;5.70;;;;;;;1.94;76.01;100828.95;1924603;74;21043;-59
2023/02/01 05:03:42;;;;;;;18.35;7.28;;;;;;;1.96;76.03;100831.55;1924669;74;21083;-59
2023/02/01 05:06:11;;;;;;;16.73;6.28;;;;;;;1.96;76.06;100838.05;1924827;74;21031;-59
2023/02/01 05:08:40;;;;;;;17.73;5.35;;;;;;;1.98;76.10;100829.81;1924448;74;21121;-59
2023/02/01 05:13:47;;;;;;;23.73;7.15;;;;;;;2.05;76.03;100834.98;1924690;74;21113;-59
2023/02/01 05:13:51;;;;;;;14.63;5.22;;;;;;;2.09;75.90;100826.31;1921618;74;21060;-59
2023/02/01 05:16:19;;;;;;;18.30;5.62;;;;;;;2.13;75.81;100828.02;1924621;74;21052;-60
2023/02/01 05:18:48;;;;;;;10.82;4.08;;;;;;;2.13;75.79;100821.97;1924597;74;21039;-60
2023/02/01 05:21:17;;;;;;;16.17;5.10;;;;;;;2.13;75.87;100818.07;1924501;74;21110;-60
2023/02/01 05:26:32;;;;;;;25.72;5.42;;;;;;;2.16;75.94;100819.78;1924593;74;21160;-60
2023/02/01 05:29:01;;;;;;;19.40;4.50;;;;;;;2.10;76.23;100818.07;1924585;74;21551;-60
2023/02/01 05:31:30;;;;;;;11.83;3.95;;;;;;;2.06;76.51;100818.95;1924560;74;21094;-62
2023/02/01 05:33:58;;;;;;;9.45;3.22;;;;;;;2.06;76.54;100818.52;1913726;74;21123;-56
2023/02/01 05:36:27;;;;;;;8.43;2.52;;;;;;;2.09;76.75;100813.31;1905308;75;21056;-57
2023/02/01 05:38:56;;;;;;;16.67;5.12;;;;;;;2.12;76.97;100810.72;1905438;75;21463;-57
2023/02/01 05:41:25;;;;;;;8.80;5.53;;;;;;;2.11;77.22;100800.33;1905395;74;21106;-57
2023/02/01 05:43:53;;;;;;;13.80;5.83;;;;;;;2.13;77.30;100804.64;1905393;75;21462;-58
2023/02/01 05:46:22;;;;;;;16.00;6.35;;;;;;;2.16;77.55;100808.98;1905177;75;21322;-58
2023/02/01 05:48:51;;;;;;;22.30;9.23;;;;;;;2.11;77.85;100812.87;1905304;75;21098;-57
2023/02/01 05:51:19;;;;;;;9.20;3.50;;;;;;;2.14;77.81;100822.41;1905233;75;21008;-57
2023/02/01 05:53:48;;;;;;;14.60;6.60;;;;;;;2.22;77.58;100834.08;1905305;75;21044;-54
2023/02/01 05:56:16;;;;;;;12.53;4.97;;;;;;;2.26;77.35;100838.38;1905204;75;21036;-50
2023/02/01 05:58:45;;;;;;;7.35;3.27;;;;;;;2.24;77.32;100833.19;1905196;75;21125;-50
2023/02/01 06:01:14;;;;;;;12.63;4.95;;;;;;;2.25;77.19;100837.94;1905276;75;21040;-56
2023/02/01 06:03:42;;;;;;;7.55;3.50;;;;;;;2.28;77.02;100843.98;1905269;75;21126;-57
2023/02/01 06:06:11;;;;;;;11.97;4.53;;;;;;;2.26;77.05;100840.54;1905189;75;21114;-57
2023/02/01 06:08:42;;;;;;;9.88;3.77;;;;;;;2.28;77.00;100850.48;1905119;75;21102;-57
2023/02/01 06:11:13;;;;;;;6.45;3.00;;;;;;;2.37;76.94;100859.14;1905073;75;21068;-59
2023/02/01 06:13:41;;;;;;;14.87;5.30;;;;;;;2.44;76.78;100859.55;1905315;75;21036;-59
2023/02/01 06:16:10;;;;;;;16.60;6.55;;;;;;;2.55;76.54;100854.31;1905219;74;21467;-58
2023/02/01 06:18:39;;;;;;;27.27;6.25;;;;;;;2.62;76.41;100850.79;1905227;75;21105;-58
2023/02/01 06:21:08;;;;;;;17.25;6.20;;;;;;;2.76;76.27;100846.84;1905165;75;21024;-58
2023/02/01 06:23:36;;;;;;;24.02;7.60;;;;;;;2.88;76.05;100847.64;1905124;75;21560;-59
2023/02/01 06:26:10;;;;;;;20.92;6.65;;;;;;;2.99;75.86;100848.88;1905230;75;21000;-48
2023/02/01 06:28:39;;;;;;;16.65;5.25;;;;;;;3.13;75.73;100849.22;1905433;75;21020;-50
2023/02/01 06:31:08;;;;;;;18.37;7.72;;;;;;;3.26;75.50;100856.06;1905196;75;21024;-50
2023/02/01 06:33:37;;;;;;;18.98;6.15;;;;;;;3.27;75.20;100853.45;1907133;74;21495;-50
2023/02/01 06:36:08;;;;;;;18.50;5.70;;;;;;;3.31;75.17;100858.65;1924494;74;21040;-55
2023/02/01 06:38:39;;;;;;;17.23;6.03;;;;;;;3.30;75.22;100864.27;1924613;74;20996;-50
2023/02/01 06:41:08;;;;;;;26.65;7.78;;;;;;;3.31;75.23;100863.41;1924619;74;21157;-50
2023/02/01 06:43:37;;;;;;;16.20;6.25;;;;;;;3.32;75.20;100861.25;1924568;74;21075;-51
2023/02/01 06:46:11;;;;;;;18.62;7.75;;;;;;;3.39;75.21;100857.69;1924697;74;21121;-49
2023/02/01 06:48:40;;;;;;;11.00;6.17;;;;;;;3.55;75.12;100862.80;1924485;74;21059;-51
2023/02/01 06:51:20;;;;;;;5.60;3.90;;;;;;;3.67;74.65;100861.38;1924528;74;21478;-52
2023/02/01 06:53:49;;;;;;;5.95;3.27;;;;;;;3.76;74.33;100854.81;1924595;74;21122;-53
2023/02/01 06:56:17;;;;;;;17.00;5.95;;;;;;;3.92;73.98;100858.56;1924763;74;21040;-52
2023/02/01 06:58:46;;;;;;;14.60;5.67;;;;;;;4.04;73.84;100858.00;1924580;74;21035;-49
2023/02/01 07:01:16;;;;;;;11.57;4.75;;;;;;;4.01;73.43;100850.66;1924635;74;21068;-53
2023/02/01 07:03:50;;;;;;;14.50;4.15;;;;;;;4.04;73.18;100849.33;1924547;74;21486;-49
2023/02/01 07:06:19;;;;;;;6.70;3.17;;;;;;;4.27;72.99;100846.91;1924728;74;21027;-53
2023/02/01 07:08:48;;;;;;;11.00;5.78;;;;;;;5.09;71.67;100844.98;1924654;74;21008;-49
2023/02/01 07:11:19;;;;;;;13.70;5.05;;;;;;;5.37;70.30;100846.72;1924624;74;21141;-55
2023/02/01 07:13:48;;;;;;;14.70;6.10;;;;;;;5.50;70.08;100841.30;1924472;74;21047;-55
2023/02/01 07:16:20;;;;;;;11.48;4.47;;;;;;;5.46;69.85;100843.10;1924541;74;21548;-55
2023/02/01 07:18:50;;;;;;;18.45;6.78;;;;;;;5.53;69.99;100842.12;1924674;74;21073;-49
2023/02/01 07:21:19;;;;;;;12.10;5.22;;;;;;;6.13;69.15;100835.84;1924633;74;21097;-48
2023/02/01 07:23:48;;;;;;;17.67;6.83;;;;;;;6.28;68.83;100835.13;1924548;74;21028;-49
2023/02/01 07:26:17;;;;;;;11.20;3.10;;;;;;;6.22;68.58;100835.27;1924413;74;21544;-52
2023/02/01 07:28:46;;;;;;;11.93;5.00;;;;;;;6.40;67.94;100827.05;1924535;74;21024;-54
2023/02/01 07:31:21;;;;;;;14.50;6.90;;;;;;;6.90;66.85;100827.72;1924598;74;21462;-52
2023/02/01 07:33:54;;;;;;;13.70;6.22;;;;;;;7.79;66.43;100827.31;1924691;74;21047;-47
2023/02/01 07:36:23;;;;;;;15.80;4.42;;;;;;;8.28;65.30;100829.05;1924622;74;21501;-49
2023/02/01 07:38:52;;;;;;;15.53;6.35;;;;;;;8.48;64.04;100827.20;1924414;74;21131;-45
2023/02/01 07:41:21;;;;;;;10.95;5.37;;;;;;;8.79;63.21;100831.09;1924554;74;21528;-46
2023/02/01 07:43:50;;;;;;;12.60;4.72;;;;;;;9.33;62.87;100832.50;1924543;74;21101;-46
2023/02/01 07:46:19;;;;;;;12.20;4.95;;;;;;;9.75;61.32;100835.94;1924533;74;21035;-46
2023/02/01 07:48:47;;;;;;;11.68;4.20;;;;;;;9.90;61.15;100840.66;1924550;74;21008;-46
2023/02/01 07:51:17;;;;;;;11.57;5.08;;;;;;;9.33;60.86;100842.55;1924404;74;21032;-48
2023/02/01 07:53:47;;;;;;;7.97;4.33;;;;;;;8.61;61.45;100843.03;1924647;74;21036;-53
2023/02/01 07:56:18;;;;;;;9.98;4.62;;;;;;;7.97;62.21;100839.08;1924515;74;20996;-49
2023/02/01 07:58:51;;;;;;;13.88;4.37;;;;;;;7.70;62.94;100842.81;1924524;74;21003;-53
2023/02/01 08:01:27;;;;;;;11.90;5.87;;;;;;;8.06;62.64;100835.33;1924665;74;21078;-50
2023/02/01 08:03:55;;;;;;;14.10;4.67;;;;;;;9.08;61.55;100836.77;1922800;74;21097;-49
2023/02/01 08:06:24;;;;;;;13.45;4.30;;;;;;;9.83;60.93;100830.83;1924616;74;21085;-47
2023/02/01 08:08:54;;;;;;;11.18;5.08;;;;;;;10.61;59.78;100822.36;1924522;74;21466;-46
2023/02/01 08:11:25;;;;;;;11.00;5.37;;;;;;;11.51;57.77;100822.30;1924490;74;21501;-49
2023/02/01 08:13:54;;;;;;;7.10;3.33;;;;;;;12.34;56.62;100816.98;1924546;74;21023;-50
2023/02/01 08:16:23;;;;;;;9.95;4.42;;;;;;;12.99;55.37;100819.27;1924437;74;21113;-48
2023/02/01 08:18:53;;;;;;;13.22;4.30;;;;;;;13.42;54.40;100815.88;1924528;74;21055;-50
2023/02/01 08:21:36;;;;;;;13.55;5.50;;;;;;;13.94;53.92;100815.50;1924539;74;21031;-48
2023/02/01 08:23:58;;;;;;;9.43;4.70;;;;;;;14.34;53.30;100807.63;1923598;74;21442;-49
2023/02/01 08:26:27;;;;;;;10.55;4.83;;;;;;;14.67;52.57;100807.62;1924495;74;20996;-48
2023/02/01 08:28:59;;;;;;;8.35;4.00;;;;;;;14.60;51.57;100798.77;1924612;74;21639;-51
2023/02/01 08:31:30;;;;;;;8.88;4.25;;;;;;;14.92;51.03;100804.95;1924495;74;21470;-50
2023/02/01 08:34:01;;;;;;;11.75;5.50;;;;;;;15.11;50.36;100796.80;1924775;74;21011;-49
2023/02/01 08:36:31;;;;;;;13.22;4.70;;;;;;;15.04;49.24;100800.25;1924598;74;21125;-51
2023/02/01 08:39:02;;;;;;;9.30;3.22;;;;;;;15.12;48.71;100792.34;1924723;74;21012;-50
2023/02/01 08:41:31;;;;;;;12.82;4.58;;;;;;;15.41;48.93;100790.66;1924585;74;21692;-50
2023/02/01 08:44:00;;;;;;;9.33;4.35;;;;;;;15.61;48.02;100794.31;1924662;74;21464;-52
2023/02/01 08:46:29;;;;;;;8.65;4.08;;;;;;;15.65;47.63;100785.70;1924648;74;21056;-50
2023/02/01 08:48:57;;;;;;;10.48;4.17;;;;;;;15.39;46.66;100782.78;1924617;74;21514;-51
2023/02/01 08:51:29;;;;;;;11.43;4.50;;;;;;;15.11;46.88;100778.71;1924759;74;21035;-49
2023/02/01 08:53:56;;;;;;;3.98;2.42;;;;;;;14.83;46.42;100768.35;1924361;74;21031;-49
2023/02/01 08:56:25;;;;;;;11.78;5.35;;;;;;;14.85;46.63;100774.42;1924623;74;21082;-51
2023/02/01 08:58:54;;;;;;;12.10;4.97;;;;;;;14.47;46.82;100772.05;1924613;74;21540;-52
2023/02/01 09:01:22;;;;;;;13.22;5.75;;;;;;;14.31;47.61;100769.86;1924590;74;21086;-53
2023/02/01 09:03:51;;;;;;;9.50;4.37;;;;;;;14.45;47.86;100765.99;1924632;74;21016;-50
2023/02/01 09:06:19;;;;;;;11.30;5.12;;;;;;;14.63;47.32;100754.41;1924536;74;21019;-50
2023/02/01 09:08:48;;;;;;;10.80;5.35;;;;;;;14.67;47.45;100753.29;1924607;74;21020;-48
2023/02/01 09:11:19;;;;;;;9.45;5.00;;;;;;;14.70;47.29;100746.98;1924583;74;21032;-48
2023/02/01 09:13:49;;;;;;;11.12;3.33;;;;;;;14.83;47.01;100744.50;1924774;74;20996;-47
2023/02/01 09:16:18;;;;;;;5.85;3.80;;;;;;;14.99;46.85;100747.11;1924624;74;21478;-50
2023/02/01 09:18:46;;;;;;;7.65;3.75;;;;;;;15.32;46.48;100744.28;1924532;74;21461;-47
2023/02/01 09:21:17;;;;;;;7.42;3.12;;;;;;;15.57;46.11;100745.02;1921566;74;21111;-47
2023/02/01 09:23:48;;;;;;;7.97;3.47;;;;;;;15.65;45.83;100737.92;1924641;74;21051;-47
2023/02/01 09:26:16;;;;;;;11.78;4.03;;;;;;;15.56;45.80;100734.50;1924602;74;21156;-50
2023/02/01 09:28:45;;;;;;;7.60;3.52;;;;;;;15.43;45.70;100730.39;1924622;74;21047;-47
2023/02/01 09:31:13;;;;;;;7.67;3.35;;;;;;;15.40;45.67;100726.14;1924531;74;21125;-49
2023/02/01 09:33:42;;;;;;;6.85;3.55;;;;;;;15.39;45.35;100723.09;1924599;74;21196;-50
2023/02/01 09:36:11;;;;;;;4.80;2.87;;;;;;;15.49;44.86;100719.41;1924645;74;21501;-50
2023/02/01 09:38:39;;;;;;;5.50;2.62;;;;;;;15.24;44.72;100721.35;1924627;74;21051;-47
2023/02/01 09:41:20;;;;;;;5.78;3.27;;;;;;;15.08;44.70;100720.53;1924589;74;21474;-57
2023/02/01 09:43:51;;;;;;;8.95;4.33;;;;;;;14.80;44.62;100712.37;1924512;74;21478;-49
2023/02/01 09:46:28;;;;;;;7.20;3.00;;;;;;;14.64;44.25;100710.20;1897697;74;21035;-46
2023/02/01 09:49:00;;;;;;;4.83;2.45;;;;;;;13.68;45.65;100704.78;1899653;74;21045;-48
2023/02/01 09:51:35;;;;;;;6.75;3.00;;;;;;;13.08;46.78;100706.95;1891384;76;21069;-47
2023/02/01 09:54:19;;;;;;;10.05;3.17;;;;;;;13.40;46.02;100707.14;1891495;76;21555;-47
2023/02/01 09:56:50;;;;;;;;;;;;;;;12.86;46.96;100709.33;1894242;76;21144;-48
2023/02/01 09:59:50;;;;;;;7.58;3.17;;;;;;;12.06;48.09;100713.56;1891462;76;20115;-47
2023/02/01 10:02:27;;;;;;;7.30;2.83;;;;;;;11.42;49.37;100714.59;1891404;76;21470;-49
2023/02/01 10:05:04;;;;;;;5.15;2.08;;;;;;;10.77;50.28;100708.93;1911504;74;21156;-51
2023/02/01 10:07:58;;;;;;;6.55;3.47;;;;;;;10.26;51.08;100711.34;1924231;74;21035;-46
2023/02/01 10:10:33;;;;;;;8.38;3.52;;;;;;;9.98;51.72;100709.74;1910233;74;21039;-47
2023/02/01 10:13:16;;;;;;;6.20;3.37;;;;;;;9.75;52.35;100704.45;1924495;74;21533;-45
2023/02/01 10:15:57;;;;;;;6.12;2.72;;;;;;;9.56;52.90;100701.17;1924758;74;21027;-46
2023/02/01 10:19:05;;;;;;;10.05;4.00;;;;;;;9.32;53.28;100703.36;1923071;74;21079;-51
2023/02/01 10:21:41;;;;;;;4.42;2.52;;;;;;;9.10;53.83;100693.56;1924472;74;21199;-49
2023/02/01 10:24:18;;;;;;;10.38;3.70;;;;;;;8.92;54.30;100700.28;1924614;74;21595;-48
2023/02/01 10:27:06;;;;;;;10.60;3.55;;;;;;;8.76;54.72;100699.94;1924587;74;21570;-46
2023/02/01 10:29:37;;;;;;;8.13;2.72;;;;;;;8.69;55.13;100697.10;1924538;74;21560;-49
2023/02/01 10:32:15;;;;;;;4.92;2.20;;;;;;;8.68;55.30;100688.81;1924466;74;21111;-47
2023/02/01 10:34:46;;;;;;;6.50;2.50;;;;;;;8.56;55.61;100686.56;1920086;74;21231;-49
2023/02/01 10:37:29;;;;;;;8.80;3.50;;;;;;;8.56;55.80;100681.31;1910249;74;21485;-48
2023/02/01 10:40:00;;;;;;;4.42;2.80;;;;;;;8.52;56.02;100682.33;1884236;75;21057;-50
2023/02/01 10:42:31;;;;;;;4.45;2.27;;;;;;;8.43;56.27;100683.03;1890977;75;21025;-47
2023/02/01 10:45:03;;;;;;;5.45;2.77;;;;;;;8.38;56.41;100678.34;1914672;75;21102;-46
2023/02/01 10:47:31;;;;;;;5.97;3.02;;;;;;;8.34;56.59;100678.47;1914599;75;21028;-45
2023/02/01 10:50:18;;;;;;;2.08;1.60;;;;;;;8.31;56.75;100674.19;1914698;75;21032;-48
2023/02/01 10:52:52;;;;;;;5.60;2.62;;;;;;;8.30;56.89;100671.17;1914241;75;21149;-47
2023/02/01 10:55:43;;;;;;;7.75;3.70;;;;;;;8.31;56.98;100672.88;1889024;74;21069;-50
2023/02/01 10:58:33;;;;;;;12.95;4.65;;;;;;;8.39;57.04;100676.14;1886805;75;21492;-56
2023/02/01 11:01:05;;;;;;;9.53;3.77;;;;;;;8.58;57.01;100674.28;1882897;75;21016;-50
2023/02/01 11:03:36;;;;;;;19.77;4.20;;;;;;;8.76;56.95;100678.94;1882197;76;21067;-54
2023/02/01 11:06:14;;;;;;;11.28;3.77;;;;;;;8.88;56.97;100677.66;1882101;76;21039;-52
2023/02/01 11:08:54;;;;;;;14.28;5.75;;;;;;;8.96;57.03;100677.41;1881945;76;21036;-48
2023/02/01 11:11:24;;;;;;;23.75;12.88;;;;;;;9.04;57.14;100689.84;1881941;75;21016;-51
2023/02/01 11:14:01;;;;;;;5.03;2.85;;;;;;;9.08;57.29;100690.14;1882236;76;21036;-52
2023/02/01 11:16:35;;;;;;;8.98;3.83;;;;;;;9.04;57.35;100693.78;1882104;76;21101;-50
2023/02/01 11:19:05;;;;;;;11.15;4.85;;;;;;;8.94;57.29;100702.86;1882409;76;21109;-49
2023/02/01 11:21:35;;;;;;;8.65;4.47;;;;;;;8.89;57.44;100709.13;1882098;76;21494;-48
2023/02/01 11:24:06;;;;;;;8.55;4.08;;;;;;;8.78;57.43;100709.05;1882242;75;21106;-51
2023/02/01 11:26:36;;;;;;;10.20;4.17;;;;;;;8.58;57.81;100713.19;1900089;75;21044;-48
2023/02/01 11:29:08;;;;;;;12.20;4.17;;;;;;;8.39;58.21;100724.67;1896440;75;21028;-49
2023/02/01 11:31:37;;;;;;;11.18;5.08;;;;;;;8.24;58.48;100729.05;1905313;75;21083;-47
2023/02/01 11:34:11;;;;;;;11.38;4.83;;;;;;;7.98;59.15;100730.66;1901008;75;21443;-46
2023/02/01 11:36:41;;;;;;;9.45;4.90;;;;;;;7.81;59.65;100725.05;1914411;75;21103;-49
2023/02/01 11:39:28;;;;;;;8.38;3.30;;;;;;;7.62;60.41;100734.72;1905377;74;21507;-48
2023/02/01 11:42:14;;;;;;;15.58;4.87;;;;;;;7.58;60.58;100727.84;1888037;75;21087;-48
2023/02/01 11:44:45;;;;;;;11.33;4.87;;;;;;;7.55;60.50;100733.16;1871752;75;21581;-51
2023/02/01 11:47:31;;;;;;;11.45;4.53;;;;;;;7.47;60.75;100739.03;1871104;77;21039;-48
2023/02/01 11:50:02;;;;;;;12.78;4.25;;;;;;;7.46;60.80;100741.27;1871134;77;21019;-47
2023/02/01 11:52:55;;;;;;;11.93;5.37;;;;;;;7.46;60.86;100747.81;1870782;76;21108;-50
2023/02/01 11:55:38;;;;;;;9.88;4.62;;;;;;;7.44;60.96;100747.00;1869972;76;21047;-47
2023/02/01 11:58:25;;;;;;;12.00;5.12;;;;;;;7.44;61.07;100753.55;1871176;77;21534;-47
2023/02/01 12:00:59;;;;;;;15.05;6.78;;;;;;;7.29;61.67;100758.27;1843400;76;21126;-48
2023/02/01 12:03:33;;;;;;;11.97;4.55;;;;;;;7.20;61.71;100762.89;1855316;76;21111;-53
2023/02/01 12:06:07;;;;;;;9.93;5.25;;;;;;;7.12;61.91;100769.17;1866195;76;21514;-48
2023/02/01 12:08:55;;;;;;;8.15;4.37;;;;;;;7.14;62.01;100771.76;1842891;76;21472;-50
2023/02/01 12:11:32;;;;;;;12.93;5.75;;;;;;;7.14;61.98;100765.21;1840722;77;21042;-53
2023/02/01 12:14:09;;;;;;;10.88;4.90;;;;;;;7.10;61.99;100767.47;1839720;78;21074;-52